Westby, MT

4:02 AM MDT on July 26, 2014 (GMT -0600)
Sloulin International (KISN) Elev 1906 ft | 48.17 °N, 103.64 °W | Change Station

Current weather conditions updated 10 minutes ago

Clear
Clear
58 °F
Feels Like 58 °F
N
20
Wind Variable Wind from West
Gusts 28 mph

Today is forecast to be Cooler than yesterday.

Today
High -- | Low -- °F
--% Chance of Precip.
Yesterday
High -- | Low -- °F
Precip. -- in
5:22 AM 8:43 PM
Waning Crescent, 0% visible
Pressure 29.83 in
Visibility 10.0 miles
Clouds Clear
Dew Point 49 °F
Humidity 72%
Rainfall 0.00 in
Snow Depth Not available.
UV 0 out of 12
Pollen 7.20 out of 12
Air Quality Not available.
Flu Activity Not available.
METAR KISN 260952Z AUTO 27017G24KT 10SM CLR 14/09 A2985 RMK AO2 SLP099 T01440094

More Conditions Fewer Conditions

Pressure 29.83 in
Visibility 10.0 miles
Clouds Clear
Dew Point 49 °F
Humidity 72%
Rainfall 0.00 in
Snow Depth Not available.
UV 0 out of 12
Pollen 7.20 out of 12
Air Quality Not available.
Flu Activity Not available.
METAR KISN 260952Z AUTO 27017G24KT 10SM CLR 14/09 A2985 RMK AO2 SLP099 T01440094

More Conditions Fewer Conditions

10-Day Weather Forecast

Almanac

Astronomy

Jul. 26, 2014 Rise Set
Actual Time 5:22 AM MDT 8:43 PM MDT
Civil Twilight 4:43 AM MDT 9:21 PM MDT
Nautical Twilight 3:53 AM MDT 10:12 PM MDT
Astronomical Twilight 2:46 AM MDT 11:17 PM MDT
Moon 5:23 AM MDT 8:11 PM MDT
Length of Visible Light 16h 37m
Length of Day
15h 20m
Tomorrow will be 2m 36s shorter.
Waning Crescent, 0% of the Moon is Illuminated
Today
Waning Crescent
Jul 26
New
Aug 3
First Quarter
Aug 10
Full
Aug 17
Last Quarter

Today's Extremes

State Highs State Lows

Community

WunderPhotos

Upload Photos

1,737,529 photos uploaded!

Nearby

Snow Depth

Station Depth Elevation
Crystal Lake 0 in 6050 ft
Daisy Peak 0 in 7600 ft
Spur Park 0 in 8100 ft
Deadman Creek 0 in 6450 ft
Onion Park 0 in 7410 ft

Earthquake Activity

City Distance Mag. Time & Date
No recent earthquake activity has been reported nearby.
Minimum magnitude displayed is 2.5.

Coastal Water Temperatures

Place Temperature
No Stations Reporting

Nearby Weather Stations

Station Location Temp. Dew Point Humidity Wind Precip. Elev Updated Type
MesoWest Comertown Turn-Off MT-5 MP 13.4, Westby, MT 57 °F 51 °F 78% WSW  at  15 mph 0.00 in / hr 2100 ft 2:44 AM MDT MADIS
RAWS CROSBY ND, Fortuna, ND 59 °F 51 °F 75% West  at  18 mph 0.00 in / hr 2133 ft 3:56 AM CDT MADIS
HADS BIG MUDDY CREEK NEAR ANTELOPE 3S MT, Antelope, MT 58 °F - - North  at  - 0.00 in / hr 2000 ft 2:15 AM MDT MADIS

Show More Stations Show Fewer Stations